sensor_id;sensor_type;location;lat;lon;timestamp;pressure;altitude;pressure_sealevel;temperature;humidity
46718;BME280;32448;44.960;-0.698;2023-02-16T00:01:14;102624.03;;;2.20;100.00
46718;BME280;32448;44.960;-0.698;2023-02-16T00:03:42;102618.00;;;2.09;100.00
46718;BME280;32448;44.960;-0.698;2023-02-16T00:06:10;102624.16;;;2.11;100.00
46718;BME280;32448;44.960;-0.698;2023-02-16T00:08:44;102623.69;;;2.05;100.00
46718;BME280;32448;44.960;-0.698;2023-02-16T00:11:16;102621.75;;;2.03;100.00
46718;BME280;32448;44.960;-0.698;2023-02-16T00:14:04;102629.91;;;1.97;100.00
46718;BME280;32448;44.960;-0.698;2023-02-16T00:16:33;102625.88;;;2.01;100.00
46718;BME280;32448;44.960;-0.698;2023-02-16T00:19:00;102621.78;;;1.93;100.00
46718;BME280;32448;44.960;-0.698;2023-02-16T00:21:28;102617.06;;;1.87;100.00
46718;BME280;32448;44.960;-0.698;2023-02-16T00:23:55;102619.72;;;1.89;100.00
46718;BME280;32448;44.960;-0.698;2023-02-16T00:26:24;102612.03;;;1.78;100.00
46718;BME280;32448;44.960;-0.698;2023-02-16T00:28:54;102595.72;;;1.58;100.00
46718;BME280;32448;44.960;-0.698;2023-02-16T00:31:27;102627.28;;;1.75;100.00
46718;BME280;32448;44.960;-0.698;2023-02-16T00:33:59;102623.53;;;1.72;100.00
46718;BME280;32448;44.960;-0.698;2023-02-16T00:36:31;102609.00;;;1.62;100.00
46718;BME280;32448;44.960;-0.698;2023-02-16T00:38:58;102621.09;;;1.63;100.00
46718;BME280;32448;44.960;-0.698;2023-02-16T00:41:25;102617.50;;;1.61;100.00
46718;BME280;32448;44.960;-0.698;2023-02-16T00:47:20;102626.00;;;1.60;100.00
46718;BME280;32448;44.960;-0.698;2023-02-16T00:49:51;102640.19;;;1.65;100.00
46718;BME280;32448;44.960;-0.698;2023-02-16T00:54:49;102624.22;;;1.49;100.00
46718;BME280;32448;44.960;-0.698;2023-02-16T00:57:17;102637.88;;;1.48;100.00
46718;BME280;32448;44.960;-0.698;2023-02-16T00:59:47;102634.78;;;1.52;100.00
46718;BME280;32448;44.960;-0.698;2023-02-16T01:02:17;102634.78;;;1.42;100.00
46718;BME280;32448;44.960;-0.698;2023-02-16T01:04:44;102635.44;;;1.39;100.00
46718;BME280;32448;44.960;-0.698;2023-02-16T01:07:13;102635.03;;;1.45;100.00
46718;BME280;32448;44.960;-0.698;2023-02-16T01:10:18;102631.31;;;1.41;100.00
46718;BME280;32448;44.960;-0.698;2023-02-16T01:13:05;102631.41;;;1.33;100.00
46718;BME280;32448;44.960;-0.698;2023-02-16T01:15:33;102626.03;;;1.30;100.00
46718;BME280;32448;44.960;-0.698;2023-02-16T01:18:37;102631.06;;;1.28;100.00
46718;BME280;32448;44.960;-0.698;2023-02-16T01:21:21;102631.69;;;1.26;100.00
46718;BME280;32448;44.960;-0.698;2023-02-16T01:23:49;102629.88;;;1.25;100.00
46718;BME280;32448;44.960;-0.698;2023-02-16T01:26:18;102627.72;;;1.19;100.00
46718;BME280;32448;44.960;-0.698;2023-02-16T01:28:46;102626.28;;;1.23;100.00
46718;BME280;32448;44.960;-0.698;2023-02-16T01:31:27;102627.19;;;1.23;100.00
46718;BME280;32448;44.960;-0.698;2023-02-16T01:33:54;102621.03;;;1.21;100.00
46718;BME280;32448;44.960;-0.698;2023-02-16T01:36:23;102627.44;;;1.26;100.00
46718;BME280;32448;44.960;-0.698;2023-02-16T01:38:52;102626.41;;;1.24;100.00
46718;BME280;32448;44.960;-0.698;2023-02-16T01:44:35;102631.34;;;1.21;100.00
46718;BME280;32448;44.960;-0.698;2023-02-16T01:47:43;102627.94;;;1.22;100.00
46718;BME280;32448;44.960;-0.698;2023-02-16T01:52:47;102624.25;;;1.19;100.00
46718;BME280;32448;44.960;-0.698;2023-02-16T01:55:21;102634.28;;;1.16;100.00
46718;BME280;32448;44.960;-0.698;2023-02-16T01:58:04;102619.72;;;1.06;100.00
46718;BME280;32448;44.960;-0.698;2023-02-16T02:03:27;102607.63;;;0.95;100.00
46718;BME280;32448;44.960;-0.698;2023-02-16T02:06:19;102621.53;;;1.07;100.00
46718;BME280;32448;44.960;-0.698;2023-02-16T02:08:58;102617.03;;;1.04;100.00
46718;BME280;32448;44.960;-0.698;2023-02-16T02:11:32;102633.88;;;0.91;100.00
46718;BME280;32448;44.960;-0.698;2023-02-16T02:14:12;102637.63;;;0.94;100.00
46718;BME280;32448;44.960;-0.698;2023-02-16T02:16:58;102632.47;;;0.94;100.00
46718;BME280;32448;44.960;-0.698;2023-02-16T02:19:30;102629.09;;;0.85;100.00
46718;BME280;32448;44.960;-0.698;2023-02-16T02:22:39;102629.88;;;0.94;100.00
46718;BME280;32448;44.960;-0.698;2023-02-16T02:28:35;102629.75;;;1.23;100.00
46718;BME280;32448;44.960;-0.698;2023-02-16T02:36:36;102608.75;;;1.49;100.00
46718;BME280;32448;44.960;-0.698;2023-02-16T02:39:33;102596.34;;;1.55;100.00
46718;BME280;32448;44.960;-0.698;2023-02-16T02:42:17;102609.47;;;1.68;100.00
46718;BME280;32448;44.960;-0.698;2023-02-16T02:44:55;102610.47;;;1.80;100.00
46718;BME280;32448;44.960;-0.698;2023-02-16T02:47:36;102600.25;;;1.92;100.00
46718;BME280;32448;44.960;-0.698;2023-02-16T02:53:48;102616.00;;;1.95;100.00
46718;BME280;32448;44.960;-0.698;2023-02-16T02:56:17;102603.75;;;1.93;100.00
46718;BME280;32448;44.960;-0.698;2023-02-16T02:59:05;102593.13;;;2.00;100.00
46718;BME280;32448;44.960;-0.698;2023-02-16T03:01:56;102570.34;;;1.94;100.00
46718;BME280;32448;44.960;-0.698;2023-02-16T03:04:28;102600.19;;;2.12;100.00
46718;BME280;32448;44.960;-0.698;2023-02-16T03:07:00;102603.47;;;2.22;100.00
46718;BME280;32448;44.960;-0.698;2023-02-16T03:09:29;102590.84;;;2.25;100.00
46718;BME280;32448;44.960;-0.698;2023-02-16T03:11:57;102598.19;;;2.30;100.00
46718;BME280;32448;44.960;-0.698;2023-02-16T03:14:51;102599.56;;;2.37;100.00
46718;BME280;32448;44.960;-0.698;2023-02-16T03:17:32;102590.25;;;2.39;100.00
46718;BME280;32448;44.960;-0.698;2023-02-16T03:20:20;102598.34;;;2.43;100.00
46718;BME280;32448;44.960;-0.698;2023-02-16T03:23:06;102594.59;;;2.50;100.00
46718;BME280;32448;44.960;-0.698;2023-02-16T03:25:53;102598.31;;;2.53;100.00
46718;BME280;32448;44.960;-0.698;2023-02-16T03:28:42;102591.34;;;2.52;100.00
46718;BME280;32448;44.960;-0.698;2023-02-16T03:31:35;102579.34;;;2.53;100.00
46718;BME280;32448;44.960;-0.698;2023-02-16T03:34:07;102591.28;;;2.63;100.00
46718;BME280;32448;44.960;-0.698;2023-02-16T03:36:37;102591.75;;;2.69;100.00
46718;BME280;32448;44.960;-0.698;2023-02-16T03:39:06;102559.59;;;2.53;100.00
46718;BME280;32448;44.960;-0.698;2023-02-16T03:41:44;102593.00;;;2.74;100.00
46718;BME280;32448;44.960;-0.698;2023-02-16T03:44:12;102593.91;;;2.74;100.00
46718;BME280;32448;44.960;-0.698;2023-02-16T03:46:40;102598.41;;;2.77;100.00
46718;BME280;32448;44.960;-0.698;2023-02-16T03:49:07;102606.63;;;2.83;100.00
46718;BME280;32448;44.960;-0.698;2023-02-16T03:51:35;102600.81;;;2.85;100.00
46718;BME280;32448;44.960;-0.698;2023-02-16T03:54:03;102608.00;;;2.89;100.00
46718;BME280;32448;44.960;-0.698;2023-02-16T03:56:30;102603.72;;;2.90;100.00
46718;BME280;32448;44.960;-0.698;2023-02-16T03:58:57;102606.03;;;2.97;100.00
46718;BME280;32448;44.960;-0.698;2023-02-16T04:01:25;102603.97;;;2.93;100.00
46718;BME280;32448;44.960;-0.698;2023-02-16T04:03:53;102610.63;;;3.01;100.00
46718;BME280;32448;44.960;-0.698;2023-02-16T04:06:21;102597.50;;;2.98;100.00
46718;BME280;32448;44.960;-0.698;2023-02-16T04:08:48;102603.22;;;3.06;100.00
46718;BME280;32448;44.960;-0.698;2023-02-16T04:11:16;102603.69;;;3.12;100.00
46718;BME280;32448;44.960;-0.698;2023-02-16T04:14:02;102600.19;;;3.11;100.00
46718;BME280;32448;44.960;-0.698;2023-02-16T04:16:29;102602.25;;;3.15;100.00
46718;BME280;32448;44.960;-0.698;2023-02-16T04:18:57;102598.88;;;3.16;100.00
46718;BME280;32448;44.960;-0.698;2023-02-16T04:21:24;102594.84;;;3.20;100.00
46718;BME280;32448;44.960;-0.698;2023-02-16T04:23:51;102605.41;;;3.23;100.00
46718;BME280;32448;44.960;-0.698;2023-02-16T04:26:18;102603.47;;;3.20;100.00
46718;BME280;32448;44.960;-0.698;2023-02-16T04:28:46;102612.50;;;3.25;100.00
46718;BME280;32448;44.960;-0.698;2023-02-16T04:31:13;102610.69;;;3.24;100.00
46718;BME280;32448;44.960;-0.698;2023-02-16T04:33:40;102611.59;;;3.25;100.00
46718;BME280;32448;44.960;-0.698;2023-02-16T04:36:08;102616.09;;;3.27;100.00
46718;BME280;32448;44.960;-0.698;2023-02-16T04:38:36;102618.91;;;3.31;100.00
46718;BME280;32448;44.960;-0.698;2023-02-16T04:41:04;102622.50;;;3.33;100.00
46718;BME280;32448;44.960;-0.698;2023-02-16T04:43:32;102627.25;;;3.38;100.00
46718;BME280;32448;44.960;-0.698;2023-02-16T04:45:59;102621.94;;;3.37;100.00
46718;BME280;32448;44.960;-0.698;2023-02-16T04:48:26;102622.06;;;3.38;100.00
46718;BME280;32448;44.960;-0.698;2023-02-16T04:50:54;102632.53;;;3.40;100.00
46718;BME280;32448;44.960;-0.698;2023-02-16T04:53:21;102634.66;;;3.45;100.00
46718;BME280;32448;44.960;-0.698;2023-02-16T04:55:49;102627.56;;;3.43;100.00
46718;BME280;32448;44.960;-0.698;2023-02-16T04:58:16;102627.81;;;3.46;100.00
46718;BME280;32448;44.960;-0.698;2023-02-16T05:00:44;102628.47;;;3.43;100.00
46718;BME280;32448;44.960;-0.698;2023-02-16T05:03:11;102623.41;;;3.45;100.00
46718;BME280;32448;44.960;-0.698;2023-02-16T05:05:39;102627.94;;;3.47;100.00
46718;BME280;32448;44.960;-0.698;2023-02-16T05:08:06;102633.09;;;3.47;100.00
46718;BME280;32448;44.960;-0.698;2023-02-16T05:10:33;102635.13;;;3.51;100.00
46718;BME280;32448;44.960;-0.698;2023-02-16T05:13:01;102615.13;;;3.49;100.00
46718;BME280;32448;44.960;-0.698;2023-02-16T05:15:47;102615.34;;;3.52;100.00
46718;BME280;32448;44.960;-0.698;2023-02-16T05:18:14;102622.41;;;3.54;100.00
46718;BME280;32448;44.960;-0.698;2023-02-16T05:20:41;102614.66;;;3.54;100.00
46718;BME280;32448;44.960;-0.698;2023-02-16T05:23:28;102615.47;;;3.53;100.00
46718;BME280;32448;44.960;-0.698;2023-02-16T05:25:55;102621.31;;;3.51;100.00
46718;BME280;32448;44.960;-0.698;2023-02-16T05:28:22;102623.00;;;3.50;100.00
46718;BME280;32448;44.960;-0.698;2023-02-16T05:30:50;102625.56;;;3.50;100.00
46718;BME280;32448;44.960;-0.698;2023-02-16T05:33:17;102635.13;;;3.51;100.00
46718;BME280;32448;44.960;-0.698;2023-02-16T05:35:44;102618.94;;;3.54;100.00
46718;BME280;32448;44.960;-0.698;2023-02-16T05:38:12;102622.09;;;3.50;100.00
46718;BME280;32448;44.960;-0.698;2023-02-16T05:40:39;102623.00;;;3.50;100.00
46718;BME280;32448;44.960;-0.698;2023-02-16T05:43:06;102629.84;;;3.50;100.00
46718;BME280;32448;44.960;-0.698;2023-02-16T05:45:33;102635.00;;;3.50;100.00
46718;BME280;32448;44.960;-0.698;2023-02-16T05:48:00;102635.91;;;3.50;100.00
46718;BME280;32448;44.960;-0.698;2023-02-16T05:50:28;102636.03;;;3.52;100.00
46718;BME280;32448;44.960;-0.698;2023-02-16T05:52:57;102619.75;;;3.53;100.00
46718;BME280;32448;44.960;-0.698;2023-02-16T05:55:25;102624.34;;;3.57;100.00
46718;BME280;32448;44.960;-0.698;2023-02-16T05:57:52;102612.19;;;3.56;100.00
46718;BME280;32448;44.960;-0.698;2023-02-16T06:00:19;102630.41;;;3.57;100.00
46718;BME280;32448;44.960;-0.698;2023-02-16T06:02:47;102626.81;;;3.55;100.00
46718;BME280;32448;44.960;-0.698;2023-02-16T06:05:14;102607.47;;;3.50;100.00
46718;BME280;32448;44.960;-0.698;2023-02-16T06:07:41;102631.66;;;3.62;100.00
46718;BME280;32448;44.960;-0.698;2023-02-16T06:10:10;102607.13;;;3.46;100.00
46718;BME280;32448;44.960;-0.698;2023-02-16T06:12:37;102635.94;;;3.62;100.00
46718;BME280;32448;44.960;-0.698;2023-02-16T06:15:05;102630.06;;;3.64;100.00
46718;BME280;32448;44.960;-0.698;2023-02-16T06:17:32;102630.97;;;3.65;100.00
46718;BME280;32448;44.960;-0.698;2023-02-16T06:19:59;102633.56;;;3.65;100.00
46718;BME280;32448;44.960;-0.698;2023-02-16T06:22:27;102630.19;;;3.66;100.00
46718;BME280;32448;44.960;-0.698;2023-02-16T06:24:54;102635.72;;;3.71;100.00
46718;BME280;32448;44.960;-0.698;2023-02-16T06:27:22;102638.66;;;3.75;100.00
46718;BME280;32448;44.960;-0.698;2023-02-16T06:29:50;102647.28;;;3.99;100.00
46718;BME280;32448;44.960;-0.698;2023-02-16T06:32:17;102658.41;;;4.21;100.00
46718;BME280;32448;44.960;-0.698;2023-02-16T06:34:45;102660.81;;;4.18;100.00
46718;BME280;32448;44.960;-0.698;2023-02-16T06:37:12;102645.72;;;4.01;100.00
46718;BME280;32448;44.960;-0.698;2023-02-16T06:39:40;102661.59;;;4.06;100.00
46718;BME280;32448;44.960;-0.698;2023-02-16T06:42:08;102654.28;;;4.00;100.00
46718;BME280;32448;44.960;-0.698;2023-02-16T06:44:35;102669.34;;;4.06;100.00
46718;BME280;32448;44.960;-0.698;2023-02-16T06:47:04;102679.03;;;4.08;100.00
46718;BME280;32448;44.960;-0.698;2023-02-16T06:49:31;102672.84;;;4.06;100.00
46718;BME280;32448;44.960;-0.698;2023-02-16T06:51:58;102674.41;;;4.04;100.00
46718;BME280;32448;44.960;-0.698;2023-02-16T06:54:26;102669.59;;;4.09;100.00
46718;BME280;32448;44.960;-0.698;2023-02-16T06:56:53;102682.72;;;4.12;100.00
46718;BME280;32448;44.960;-0.698;2023-02-16T06:59:21;102675.44;;;4.06;100.00
46718;BME280;32448;44.960;-0.698;2023-02-16T07:01:49;102683.63;;;4.12;100.00
46718;BME280;32448;44.960;-0.698;2023-02-16T07:04:16;102670.13;;;4.05;100.00
46718;BME280;32448;44.960;-0.698;2023-02-16T07:06:46;102693.44;;;4.16;100.00
46718;BME280;32448;44.960;-0.698;2023-02-16T07:09:13;102682.72;;;4.12;100.00
46718;BME280;32448;44.960;-0.698;2023-02-16T07:11:40;102692.66;;;4.17;100.00
46718;BME280;32448;44.960;-0.698;2023-02-16T07:14:08;102695.34;;;4.19;100.00
46718;BME280;32448;44.960;-0.698;2023-02-16T07:16:36;102696.13;;;4.18;100.00
46718;BME280;32448;44.960;-0.698;2023-02-16T07:19:03;102686.34;;;4.14;100.00
46718;BME280;32448;44.960;-0.698;2023-02-16T07:21:31;102692.06;;;4.21;100.00
46718;BME280;32448;44.960;-0.698;2023-02-16T07:23:58;102682.06;;;4.14;100.00
46718;BME280;32448;44.960;-0.698;2023-02-16T07:26:26;102703.66;;;4.26;100.00
46718;BME280;32448;44.960;-0.698;2023-02-16T07:28:54;102709.50;;;4.35;100.00
46718;BME280;32448;44.960;-0.698;2023-02-16T07:31:21;102716.50;;;4.36;100.00
46718;BME280;32448;44.960;-0.698;2023-02-16T07:33:52;102713.44;;;4.42;100.00
46718;BME280;32448;44.960;-0.698;2023-02-16T07:36:19;102716.25;;;4.45;100.00
46718;BME280;32448;44.960;-0.698;2023-02-16T07:38:46;102717.75;;;4.42;100.00
46718;BME280;32448;44.960;-0.698;2023-02-16T07:41:13;102714.69;;;4.47;100.00
46718;BME280;32448;44.960;-0.698;2023-02-16T07:43:41;102715.09;;;4.53;100.00
46718;BME280;32448;44.960;-0.698;2023-02-16T07:46:09;102720.28;;;4.53;100.00
46718;BME280;32448;44.960;-0.698;2023-02-16T07:48:36;102730.44;;;4.62;100.00
46718;BME280;32448;44.960;-0.698;2023-02-16T07:51:04;102725.38;;;4.63;100.00
46718;BME280;32448;44.960;-0.698;2023-02-16T07:53:32;102733.78;;;4.72;100.00
46718;BME280;32448;44.960;-0.698;2023-02-16T07:55:59;102740.84;;;4.75;100.00
46718;BME280;32448;44.960;-0.698;2023-02-16T07:58:26;102745.47;;;4.79;100.00
46718;BME280;32448;44.960;-0.698;2023-02-16T08:01:07;102744.69;;;4.80;100.00
46718;BME280;32448;44.960;-0.698;2023-02-16T08:03:35;102752.69;;;4.83;100.00
46718;BME280;32448;44.960;-0.698;2023-02-16T08:06:03;102752.09;;;4.87;100.00
46718;BME280;32448;44.960;-0.698;2023-02-16T08:08:31;102765.41;;;4.92;100.00
46718;BME280;32448;44.960;-0.698;2023-02-16T08:10:58;102765.50;;;4.93;100.00
46718;BME280;32448;44.960;-0.698;2023-02-16T08:13:25;102767.06;;;5.03;100.00
46718;BME280;32448;44.960;-0.698;2023-02-16T08:15:53;102768.97;;;5.05;100.00
46718;BME280;32448;44.960;-0.698;2023-02-16T08:18:20;102752.53;;;5.05;100.00
46718;BME280;32448;44.960;-0.698;2023-02-16T08:20:48;102772.91;;;5.12;100.00
46718;BME280;32448;44.960;-0.698;2023-02-16T08:23:30;102783.56;;;5.28;100.00
46718;BME280;32448;44.960;-0.698;2023-02-16T08:25:58;102786.03;;;5.27;100.00
46718;BME280;32448;44.960;-0.698;2023-02-16T08:28:26;102790.63;;;5.31;100.00
46718;BME280;32448;44.960;-0.698;2023-02-16T08:30:55;102790.19;;;5.36;100.00
46718;BME280;32448;44.960;-0.698;2023-02-16T08:33:22;102795.09;;;5.45;100.00
46718;BME280;32448;44.960;-0.698;2023-02-16T08:35:50;102783.94;;;5.46;100.00
46718;BME280;32448;44.960;-0.698;2023-02-16T08:38:18;102789.75;;;5.55;100.00
46718;BME280;32448;44.960;-0.698;2023-02-16T08:40:47;102784.47;;;5.54;100.00
46718;BME280;32448;44.960;-0.698;2023-02-16T08:43:15;102798.00;;;5.61;100.00
46718;BME280;32448;44.960;-0.698;2023-02-16T08:45:46;102803.41;;;5.77;100.00
46718;BME280;32448;44.960;-0.698;2023-02-16T08:48:14;102800.59;;;5.74;100.00
46718;BME280;32448;44.960;-0.698;2023-02-16T08:50:44;102798.84;;;5.73;100.00
46718;BME280;32448;44.960;-0.698;2023-02-16T08:53:22;102804.31;;;5.78;100.00
46718;BME280;32448;44.960;-0.698;2023-02-16T08:55:53;102814.00;;;5.80;100.00
46718;BME280;32448;44.960;-0.698;2023-02-16T08:58:22;102807.69;;;5.89;100.00
46718;BME280;32448;44.960;-0.698;2023-02-16T09:00:51;102817.78;;;5.97;100.00
46718;BME280;32448;44.960;-0.698;2023-02-16T09:03:19;102809.41;;;6.01;100.00
46718;BME280;32448;44.960;-0.698;2023-02-16T09:05:48;102809.31;;;6.00;100.00
46718;BME280;32448;44.960;-0.698;2023-02-16T09:08:15;102814.63;;;6.01;100.00
46718;BME280;32448;44.960;-0.698;2023-02-16T09:10:43;102826.22;;;6.06;100.00
46718;BME280;32448;44.960;-0.698;2023-02-16T09:13:10;102818.72;;;6.11;100.00
46718;BME280;32448;44.960;-0.698;2023-02-16T09:15:44;102804.34;;;6.03;100.00
46718;BME280;32448;44.960;-0.698;2023-02-16T09:18:12;102829.94;;;6.23;100.00
46718;BME280;32448;44.960;-0.698;2023-02-16T09:20:42;102836.84;;;6.22;100.00
46718;BME280;32448;44.960;-0.698;2023-02-16T09:23:12;102832.75;;;6.26;100.00
46718;BME280;32448;44.960;-0.698;2023-02-16T09:25:40;102847.94;;;6.33;100.00
46718;BME280;32448;44.960;-0.698;2023-02-16T09:28:09;102852.78;;;6.40;100.00
46718;BME280;32448;44.960;-0.698;2023-02-16T09:30:37;102848.88;;;6.47;100.00
46718;BME280;32448;44.960;-0.698;2023-02-16T09:33:05;102847.97;;;6.46;100.00
46718;BME280;32448;44.960;-0.698;2023-02-16T09:35:32;102851.84;;;6.53;100.00
46718;BME280;32448;44.960;-0.698;2023-02-16T09:38:00;102853.19;;;6.60;100.00
46718;BME280;32448;44.960;-0.698;2023-02-16T09:40:29;102843.59;;;6.72;100.00
46718;BME280;32448;44.960;-0.698;2023-02-16T09:43:11;102853.38;;;6.76;100.00
46718;BME280;32448;44.960;-0.698;2023-02-16T09:45:46;102857.88;;;6.78;100.00
46718;BME280;32448;44.960;-0.698;2023-02-16T09:50:58;102861.59;;;6.95;100.00
46718;BME280;32448;44.960;-0.698;2023-02-16T09:53:40;102868.19;;;7.03;100.00
46718;BME280;32448;44.960;-0.698;2023-02-16T09:56:24;102876.47;;;7.11;100.00
46718;BME280;32448;44.960;-0.698;2023-02-16T09:59:03;102878.69;;;7.18;100.00
46718;BME280;32448;44.960;-0.698;2023-02-16T10:04:39;102873.84;;;7.37;100.00
46718;BME280;32448;44.960;-0.698;2023-02-16T10:09:56;102881.44;;;7.47;100.00
46718;BME280;32448;44.960;-0.698;2023-02-16T10:12:31;102881.44;;;7.47;100.00
46718;BME280;32448;44.960;-0.698;2023-02-16T10:15:07;102887.31;;;7.58;100.00
46718;BME280;32448;44.960;-0.698;2023-02-16T10:17:50;102871.25;;;7.65;100.00
46718;BME280;32448;44.960;-0.698;2023-02-16T10:22:56;102862.31;;;7.75;100.00
46718;BME280;32448;44.960;-0.698;2023-02-16T10:25:50;102880.69;;;7.91;100.00
46718;BME280;32448;44.960;-0.698;2023-02-16T10:28:39;102856.66;;;7.95;100.00
46718;BME280;32448;44.960;-0.698;2023-02-16T10:31:24;102842.09;;;7.98;100.00
46718;BME280;32448;44.960;-0.698;2023-02-16T10:37:15;102859.25;;;7.95;100.00
46718;BME280;32448;44.960;-0.698;2023-02-16T10:40:26;102888.81;;;8.10;100.00
46718;BME280;32448;44.960;-0.698;2023-02-16T10:43:11;102887.22;;;8.12;100.00
46718;BME280;32448;44.960;-0.698;2023-02-16T10:45:53;102864.13;;;8.03;100.00
46718;BME280;32448;44.960;-0.698;2023-02-16T10:48:30;102884.78;;;8.30;100.00
46718;BME280;32448;44.960;-0.698;2023-02-16T10:51:08;102868.88;;;8.38;100.00
46718;BME280;32448;44.960;-0.698;2023-02-16T10:53:51;102872.91;;;8.48;100.00
46718;BME280;32448;44.960;-0.698;2023-02-16T10:58:59;102866.25;;;8.68;100.00
46718;BME280;32448;44.960;-0.698;2023-02-16T11:01:42;102842.69;;;8.66;100.00
46718;BME280;32448;44.960;-0.698;2023-02-16T11:07:18;102870.38;;;8.94;100.00
46718;BME280;32448;44.960;-0.698;2023-02-16T11:09:50;102871.44;;;8.97;100.00
46718;BME280;32448;44.960;-0.698;2023-02-16T11:12:34;102868.53;;;9.07;100.00
46718;BME280;32448;44.960;-0.698;2023-02-16T11:15:07;102864.72;;;9.17;100.00
46718;BME280;32448;44.960;-0.698;2023-02-16T11:17:49;102853.56;;;9.20;100.00
46718;BME280;32448;44.960;-0.698;2023-02-16T11:20:33;102874.19;;;9.46;100.00
46718;BME280;32448;44.960;-0.698;2023-02-16T11:23:24;102865.13;;;9.56;100.00
46718;BME280;32448;44.960;-0.698;2023-02-16T11:28:42;102881.66;;;9.71;100.00
46718;BME280;32448;44.960;-0.698;2023-02-16T11:31:24;102880.84;;;9.72;100.00
46718;BME280;32448;44.960;-0.698;2023-02-16T11:34:25;102879.19;;;9.74;100.00
46718;BME280;32448;44.960;-0.698;2023-02-16T11:37:12;102851.25;;;9.73;100.00
46718;BME280;32448;44.960;-0.698;2023-02-16T11:39:51;102841.56;;;9.86;100.00
46718;BME280;32448;44.960;-0.698;2023-02-16T11:44:52;102842.38;;;10.02;100.00
46718;BME280;32448;44.960;-0.698;2023-02-16T11:47:26;102847.91;;;10.08;100.00
46718;BME280;32448;44.960;-0.698;2023-02-16T11:50:27;102850.28;;;10.19;100.00
46718;BME280;32448;44.960;-0.698;2023-02-16T11:53:12;102840.50;;;10.15;100.00
46718;BME280;32448;44.960;-0.698;2023-02-16T11:55:44;102835.31;;;10.17;100.00
46718;BME280;32448;44.960;-0.698;2023-02-16T11:58:24;102848.41;;;10.33;100.00
46718;BME280;32448;44.960;-0.698;2023-02-16T12:01:21;102840.56;;;10.51;100.00
46718;BME280;32448;44.960;-0.698;2023-02-16T12:04:02;102821.06;;;10.44;100.00
46718;BME280;32448;44.960;-0.698;2023-02-16T12:14:39;102832.63;;;11.01;100.00
46718;BME280;32448;44.960;-0.698;2023-02-16T12:20:30;102818.00;;;11.06;100.00
46718;BME280;32448;44.960;-0.698;2023-02-16T12:23:32;102817.69;;;11.18;100.00
46718;BME280;32448;44.960;-0.698;2023-02-16T12:28:49;102785.97;;;11.49;100.00
46718;BME280;32448;44.960;-0.698;2023-02-16T12:31:28;102804.50;;;11.73;100.00
46718;BME280;32448;44.960;-0.698;2023-02-16T12:34:16;102797.22;;;11.65;100.00
46718;BME280;32448;44.960;-0.698;2023-02-16T12:42:48;102789.72;;;11.92;100.00
46718;BME280;32448;44.960;-0.698;2023-02-16T12:45:28;102785.00;;;12.04;100.00
46718;BME280;32448;44.960;-0.698;2023-02-16T12:51:25;102785.22;;;12.30;100.00
46718;BME280;32448;44.960;-0.698;2023-02-16T12:54:03;102775.09;;;12.39;100.00
46718;BME280;32448;44.960;-0.698;2023-02-16T12:56:47;102779.97;;;12.51;100.00
46718;BME280;32448;44.960;-0.698;2023-02-16T13:01:49;102757.13;;;12.69;100.00
46718;BME280;32448;44.960;-0.698;2023-02-16T13:04:49;102759.91;;;12.96;100.00
46718;BME280;32448;44.960;-0.698;2023-02-16T13:07:28;102729.31;;;12.96;100.00
46718;BME280;32448;44.960;-0.698;2023-02-16T13:10:03;102726.13;;;13.05;100.00
46718;BME280;32448;44.960;-0.698;2023-02-16T13:15:35;102751.47;;;13.25;100.00
46718;BME280;32448;44.960;-0.698;2023-02-16T13:20:52;102736.09;;;13.60;100.00
46718;BME280;32448;44.960;-0.698;2023-02-16T13:32:07;102727.53;;;13.89;100.00
46718;BME280;32448;44.960;-0.698;2023-02-16T13:42:50;102693.72;;;14.00;100.00
46718;BME280;32448;44.960;-0.698;2023-02-16T13:45:41;102724.66;;;14.34;100.00
46718;BME280;32448;44.960;-0.698;2023-02-16T13:48:20;102714.13;;;14.34;100.00
46718;BME280;32448;44.960;-0.698;2023-02-16T13:51:00;102672.59;;;14.25;100.00
46718;BME280;32448;44.960;-0.698;2023-02-16T13:53:37;102718.78;;;14.41;100.00
46718;BME280;32448;44.960;-0.698;2023-02-16T13:56:18;102703.19;;;14.47;100.00
46718;BME280;32448;44.960;-0.698;2023-02-16T13:58:50;102705.81;;;14.47;100.00
46718;BME280;32448;44.960;-0.698;2023-02-16T14:03:54;102695.31;;;14.48;100.00
46718;BME280;32448;44.960;-0.698;2023-02-16T14:14:42;102693.56;;;15.06;100.00
46718;BME280;32448;44.960;-0.698;2023-02-16T14:17:23;102695.78;;;14.92;100.00
46718;BME280;32448;44.960;-0.698;2023-02-16T14:20:04;102694.91;;;14.91;100.00
46718;BME280;32448;44.960;-0.698;2023-02-16T14:22:50;102684.28;;;15.18;100.00
46718;BME280;32448;44.960;-0.698;2023-02-16T14:28:01;102689.41;;;15.14;100.00
46718;BME280;32448;44.960;-0.698;2023-02-16T14:36:25;102683.91;;;15.35;100.00
46718;BME280;32448;44.960;-0.698;2023-02-16T14:38:36;102682.59;;;15.20;100.00
46718;BME280;32448;44.960;-0.698;2023-02-16T14:41:29;102679.38;;;15.30;100.00
46718;BME280;32448;44.960;-0.698;2023-02-16T14:44:28;102686.38;;;15.30;100.00
46718;BME280;32448;44.960;-0.698;2023-02-16T14:47:12;102684.03;;;15.09;100.00
46718;BME280;32448;44.960;-0.698;2023-02-16T14:50:40;102684.44;;;15.24;100.00
46718;BME280;32448;44.960;-0.698;2023-02-16T14:58:18;102682.66;;;15.22;100.00
46718;BME280;32448;44.960;-0.698;2023-02-16T15:03:23;102681.13;;;15.30;100.00
46718;BME280;32448;44.960;-0.698;2023-02-16T15:06:00;102682.91;;;15.62;100.00
46718;BME280;32448;44.960;-0.698;2023-02-16T15:08:36;102678.06;;;15.46;100.00
46718;BME280;32448;44.960;-0.698;2023-02-16T15:11:15;102676.09;;;15.39;100.00
46718;BME280;32448;44.960;-0.698;2023-02-16T15:13:46;102665.09;;;15.22;100.00
46718;BME280;32448;44.960;-0.698;2023-02-16T15:16:20;102670.47;;;15.27;100.00
46718;BME280;32448;44.960;-0.698;2023-02-16T15:18:50;102668.59;;;15.21;100.00